Flight Track Log - Related Links

Times and Time Zones

All times are in EDT time to prevent confusion due to time zone crossing. See the TAM3736 flight status page for this flight to view local times or setup timezone preferences in your user account.

Time Position Orientation Groundspeed Altitude Reporting Facility
EDT Latitude Longitude Course Direction KTS MPH feet Rate Location/Type
Mon 09:04:02 PM -23.5970 -46.6880 327° Northwest 181 208 3,900  Level FlightAware ADS-B
Mon 09:04:32 PM -23.6140 -46.7120 232° Southwest 216 249 4,700 1,855 Climbing FlightAware ADS-B
Mon 09:04:57 PM -23.6360 -46.7320 220° Southwest 249 287 5,600 2,400 Climbing FlightAware ADS-B
Mon 09:05:22 PM -23.6490 -46.7580 241° Southwest 264 304 6,700 3,273 Climbing FlightAware ADS-B
Mon 09:05:52 PM -23.6400 -46.7980 284° West 269 310 8,600 3,600 Climbing FlightAware ADS-B
Mon 09:06:07 PM -23.6360 -46.8190 282° West 274 315 9,400 3,000 Climbing FlightAware ADS-B
Mon 09:06:52 PM -23.6230 -46.8790 283° West 287 330 11,600 2,824 Climbing FlightAware ADS-B
Mon 09:07:32 PM -23.6100 -46.9390 283° West 303 349 13,400 2,400 Climbing FlightAware ADS-B
Mon 09:08:17 PM -23.5930 -47.0100 285° West 332 382 15,000 1,976 Climbing FlightAware ADS-B
Mon 09:08:57 PM -23.5780 -47.0760 284° West 351 404 16,200 2,325 Climbing FlightAware ADS-B
Mon 09:09:37 PM -23.5620 -47.1450 284° West 348 400 18,100 2,400 Climbing FlightAware ADS-B
Mon 09:10:22 PM -23.5440 -47.2210 284° West 362 417 19,600 1,906 Climbing FlightAware ADS-B
Mon 09:11:02 PM -23.5280 -47.2920 284° West 369 425 20,800 1,765 Climbing FlightAware ADS-B
Mon 09:11:47 PM -23.5000 -47.3750 290° West 385 443 22,100 1,906 Climbing FlightAware ADS-B
Mon 09:12:27 PM -23.4640 -47.4420 300° West 388 447 23,500 1,725 Climbing FlightAware ADS-B
Mon 09:13:07 PM -23.4200 -47.5070 306° West 399 459 24,400 1,482 Climbing FlightAware ADS-B
Mon 09:13:52 PM -23.3720 -47.5770 307° West 404 465 25,600 1,624 Climbing FlightAware ADS-B
Mon 09:14:32 PM -23.3270 -47.6430 307° West 406 467 26,700 1,624 Climbing FlightAware ADS-B
Mon 09:15:17 PM -23.2760 -47.7190 306° West 410 472 27,900 918 Climbing FlightAware ADS-B
Mon 09:15:57 PM -23.2300 -47.7860 307° West 416 479 28,000 75 Climbing FlightAware ADS-B
Mon 09:16:37 PM -23.1850 -47.8510 307° West 418 481 28,000  Level FlightAware ADS-B
Mon 09:17:22 PM -23.1330 -47.9270 307° West 418 481 28,000  Level FlightAware ADS-B
Mon 09:18:02 PM -23.0880 -47.9930 307° West 417 480 28,000  Level FlightAware ADS-B
Mon 09:18:42 PM -23.0410 -48.0620 307° West 417 480 28,000  Level FlightAware ADS-B
Mon 09:19:27 PM -22.9900 -48.1350 307° West 416 479 28,000  Level FlightAware ADS-B
Mon 09:20:07 PM -22.9430 -48.2040 306° West 416 479 28,000  Level FlightAware ADS-B
Mon 09:20:52 PM -22.8900 -48.2800 307° West 416 479 28,000  Level FlightAware ADS-B
Mon 09:21:32 PM -22.8430 -48.3480 307° West 416 479 28,000  Level FlightAware ADS-B
Mon 09:22:12 PM -22.7970 -48.4140 307° West 417 480 28,000  Level FlightAware ADS-B
Mon 09:22:57 PM -22.7480 -48.4860 306° West 417 480 28,000  Level FlightAware ADS-B
Mon 09:23:37 PM -22.7000 -48.5550 307° West 418 481 28,000  Level FlightAware ADS-B
Mon 09:24:22 PM -22.6470 -48.6300 307° West 420 483 28,000  Level FlightAware ADS-B
Mon 09:25:02 PM -22.5940 -48.6940 312° West 437 503 28,000  Level FlightAware ADS-B
Mon 09:25:42 PM -22.5200 -48.7310 335° Northwest 455 524 28,000  Level FlightAware ADS-B
Mon 09:26:27 PM -22.4320 -48.7690 338° Northwest 453 521 28,000  Level FlightAware ADS-B
Mon 09:27:07 PM -22.3540 -48.8030 338° Northwest 451 519 28,000 -212 Level FlightAware ADS-B
Mon 09:27:52 PM -22.2640 -48.8410 339° North 448 516 27,700 -635 Descending FlightAware ADS-B
Mon 09:28:32 PM -22.1890 -48.8740 338° Northwest 446 513 27,100 -975 Descending FlightAware ADS-B
Mon 09:29:12 PM -22.1110 -48.9070 339° North 443 510 26,400 -1,200 Descending FlightAware ADS-B
Mon 09:29:57 PM -22.0260 -48.9440 338° Northwest 444 511 25,400 -2,188 Descending FlightAware ADS-B
Mon 09:30:37 PM -21.9520 -48.9800 336° Northwest 440 506 23,300 -3,106 Descending FlightAware ADS-B
Mon 09:31:22 PM -21.8690 -49.0290 331° Northwest 434 499 21,000 -2,824 Descending FlightAware ADS-B
Mon 09:32:02 PM -21.8000 -49.0690 332° Northwest 425 489 19,300 -2,475 Descending FlightAware ADS-B
Mon 09:32:42 PM -21.7320 -49.1080 332° Northwest 410 472 17,700 -2,541 Descending FlightAware ADS-B
Mon 09:33:27 PM -21.6590 -49.1500 332° Northwest 402 463 15,700 -2,541 Descending FlightAware ADS-B
Mon 09:34:07 PM -21.5950 -49.1870 332° Northwest 393 452 14,100 -2,400 Descending FlightAware ADS-B
Mon 09:34:52 PM -21.5230 -49.2280 332° Northwest 383 441 12,300 -2,250 Descending FlightAware ADS-B
Mon 09:35:27 PM -21.4700 -49.2590 331° Northwest 374 430 11,100 -1,425 Descending FlightAware ADS-B
Mon 09:36:12 PM -21.4010 -49.2980 332° Northwest 337 388 10,400 -800 Descending FlightAware ADS-B
Mon 09:36:57 PM -21.3440 -49.3310 332° Northwest 304 350 9,900 -857 Descending FlightAware ADS-B
Mon 09:37:22 PM -21.3120 -49.3490 332° Northwest 299 344 9,400 -1,309 Descending FlightAware ADS-B
Mon 09:37:52 PM -21.2760 -49.3700 331° Northwest 292 336 8,700 -1,300 Descending FlightAware ADS-B
Mon 09:38:22 PM -21.2410 -49.3900 332° Northwest 284 327 8,100 -1,200 Descending FlightAware ADS-B
Mon 09:38:47 PM -21.2130 -49.4060 332° Northwest 282 325 7,600 -1,200 Descending FlightAware ADS-B
Mon 09:39:07 PM -21.1900 -49.4190 332° Northwest 280 322 7,200 -771 Descending FlightAware ADS-B
Mon 09:39:57 PM -21.1390 -49.4490 331° Northwest 278 320 6,700 -900 Descending FlightAware ADS-B
Mon 09:40:07 PM -21.1350 -49.4500 347° North 274 315 6,300 -1,733 Descending FlightAware ADS-B
Mon 09:40:42 PM -21.0860 -49.4780 332° Northwest 276 318 5,400 -943 Descending FlightAware ADS-B
Mon 09:41:17 PM -21.0500 -49.4990 331° Northwest 276 318 5,200 -500 Descending FlightAware ADS-B
Mon 09:41:42 PM -21.0220 -49.5150 332° Northwest 276 318 4,900 -185 Descending FlightAware ADS-B
Mon 09:42:22 PM -20.9770 -49.5340 338° Northwest 242 278 5,000  Climbing FlightAware ADS-B
Mon 09:43:07 PM -20.9320 -49.5490 343° North 209 241 4,900 -277 Descending FlightAware ADS-B
Mon 09:43:27 PM -20.9160 -49.5400 28° Northeast 200 230 4,700 -514 Descending FlightAware ADS-B
Mon 09:43:42 PM -20.9110 -49.5340 48° Northeast 196 226 4,600 -960 Descending FlightAware ADS-B
Mon 09:44:17 PM -20.8920 -49.5070 53° Northeast 174 200 3,900 -1,029 Descending FlightAware ADS-B
Mon 09:44:52 PM -20.8740 -49.4840 50° Northeast 154 177 3,400 -800 Descending FlightAware ADS-B
Mon 09:45:17 PM -20.8640 -49.4700 53° Northeast 144 166 3,100 -764 Descending FlightAware ADS-B
Mon 09:45:47 PM -20.8510 -49.4520 52° Northeast 144 166 2,700 -700 Descending FlightAware ADS-B
Mon 09:46:17 PM -20.8400 -49.4380 50° Northeast 143 165 2,400 -667 Descending FlightAware ADS-B
Mon 09:46:32 PM -20.8350 -49.4310 53° Northeast 140 161 2,200 -900 Descending FlightAware ADS-B
Mon 09:46:57 PM -20.8240 -49.4160 52° Northeast 141 162 1,800 -960 Descending FlightAware ADS-B

Login

Don't have an account? Register now (free) for customized features, flight alerts, and more!